Carmo do Rio Verde, Brazil
Current Conditions -  °F | °C
As of 3:00 AM on Thursday 23 Oct 2014 (Local Time) from SBAN Reporting Station
Broken Clouds Broken Clouds  
Wind Chill: 66°   Ceiling: 10000
Heat Index: 66°   Visibility: 6mi
Dew Point: 61°   Wind: 3mph
Humidity: 83%   Direction: 20°NNE
Pressure: 30.12"   Gusts: NA
Location:  15.35°S, 49.71°W
Report Text: SBAN 230500Z 02003KT 9999 SCT030 FEW040TCU BKN100 19/16 Q1020 RETS
Loading
Personal Weather Stations






























Interactive Weather Map
Tropical Storm Tracking
New forecast layout! Learn more

10-Day Weather Forecast

Advertisements
Track Severe Weather on mobile